
Distance (Route):
Temperature : 9.8°C
Humidity : 0%
Pressure : 0hPa| Receiver | Frames | First received | Last received |
|---|---|---|---|
| ARGUS2 | 353 | 2026-09-04 23:12:18 | 2026-09-05 01:22:47 |
| Receiver | Date | Latitude | Longitude | Direction | Speed | Altitude | Climb | Temperature | Humidity | Pressure | Voltage | Killtimer | Uptime | BKT | XDATA |
|---|---|---|---|---|---|---|---|---|---|---|---|---|---|---|---|
| ARGUS2 | 2026-09-05 01:22:47 | 27.80819 | -82.92467 | 61° | 11km/h | 3356m | -12.8m/s | 9.8°C | 0% | 0hPa | 0V | 00:00:00 | 00:00:00 | 00:00:00 | |
| ARGUS2 | 2026-09-05 01:22:27 | 27.80792 | -82.92533 | 60° | 13km/h | 3631m | -13.5m/s | 8.5°C | 0% | 0hPa | 0V | 00:00:00 | 00:00:00 | 00:00:00 | |
| ARGUS2 | 2026-09-05 01:21:44 | 27.80724 | -82.92674 | 65° | 13km/h | 4182m | -12.0m/s | 4.7°C | 0% | 0hPa | 0V | 00:00:00 | 00:00:00 | 00:00:00 | |
| ARGUS2 | 2026-09-05 01:21:24 | 27.80686 | -82.92752 | 54° | 16km/h | 4431m | -11.0m/s | 3.2°C | 0% | 0hPa | 0V | 00:00:00 | 00:00:00 | 00:00:00 | |
| ARGUS2 | 2026-09-05 01:21:03 | 27.80638 | -82.92805 | 35° | 13km/h | 4659m | -10.8m/s | 1.7°C | 0% | 0hPa | 0V | 00:00:00 | 00:00:00 | 00:00:00 | |
| ARGUS2 | 2026-09-05 01:20:42 | 27.80577 | -82.92864 | 38° | 16km/h | 4890m | -10.8m/s | 0.3°C | 0% | 0hPa | 0V | 00:00:00 | 00:00:00 | 00:00:00 | |
| ARGUS2 | 2026-09-05 01:20:22 | 27.80496 | -82.92899 | 28° | 15km/h | 5131m | -11.7m/s | -0.7°C | 0% | 0hPa | 0V | 00:00:00 | 00:00:00 | 00:00:00 | |
| ARGUS2 | 2026-09-05 01:20:00 | 27.80415 | -82.92977 | 44° | 24km/h | 5394m | -11.9m/s | -2.6°C | 0% | 0hPa | 0V | 00:00:00 | 00:00:00 | 00:00:00 | |
| ARGUS2 | 2026-09-05 01:19:39 | 27.80327 | -82.93047 | 34° | 16km/h | 5642m | -12.3m/s | -3.4°C | 0% | 0hPa | 0V | 00:00:00 | 00:00:00 | 00:00:00 | |
| ARGUS2 | 2026-09-05 01:19:18 | 27.80253 | -82.93095 | 15° | 18km/h | 5913m | -13.2m/s | -5.7°C | 0% | 0hPa | 0V | 00:00:00 | 00:00:00 | 00:00:00 | |
| ARGUS2 | 2026-09-05 01:18:58 | 27.80169 | -82.93120 | 18° | 16km/h | 6176m | -11.7m/s | -7.6°C | 0% | 0hPa | 0V | 00:00:00 | 00:00:00 | 00:00:00 | |
| ARGUS2 | 2026-09-05 01:18:37 | 27.80094 | -82.93127 | 360° | 16km/h | 6383m | -9.9m/s | -8.6°C | 0% | 0hPa | 0V | 00:00:00 | 00:00:00 | 00:00:00 | |
| ARGUS2 | 2026-09-05 01:18:17 | 27.80010 | -82.93147 | 22° | 18km/h | 6593m | -10.4m/s | -10.4°C | 0% | 0hPa | 0V | 00:00:00 | 00:00:00 | 00:00:00 | |
| ARGUS2 | 2026-09-05 01:17:56 | 27.79939 | -82.93191 | 31° | 18km/h | 6853m | -15.2m/s | -12.0°C | 0% | 0hPa | 0V | 00:00:00 | 00:00:00 | 00:00:00 | |
| ARGUS2 | 2026-09-05 01:17:36 | 27.79836 | -82.93259 | 35° | 24km/h | 7178m | -16.1m/s | -13.7°C | 0% | 0hPa | 0V | 00:00:00 | 00:00:00 | 00:00:00 | |
| ARGUS2 | 2026-09-05 01:17:14 | 27.79757 | -82.93365 | 59° | 26km/h | 7521m | -16.2m/s | -15.3°C | 0% | 0hPa | 0V | 00:00:00 | 00:00:00 | 00:00:00 | |
| ARGUS2 | 2026-09-05 01:16:54 | 27.79683 | -82.93475 | 45° | 18km/h | 7856m | -16.9m/s | -17.4°C | 0% | 0hPa | 0V | 00:00:00 | 00:00:00 | 00:00:00 | |
| ARGUS2 | 2026-09-05 01:16:33 | 27.79603 | -82.93543 | 34° | 16km/h | 8214m | -17.1m/s | -19.2°C | 0% | 0hPa | 0V | 00:00:00 | 00:00:00 | 00:00:00 | |
| ARGUS2 | 2026-09-05 01:16:13 | 27.79534 | -82.93570 | 11° | 15km/h | 8554m | -16.7m/s | -22.1°C | 0% | 0hPa | 0V | 00:00:00 | 00:00:00 | 00:00:00 | |
| ARGUS2 | 2026-09-05 01:15:53 | 27.79441 | -82.93605 | 19° | 16km/h | 8908m | -16.7m/s | -24.3°C | 0% | 0hPa | 0V | 00:00:00 | 00:00:00 | 00:00:00 | |
| ARGUS2 | 2026-09-05 01:15:32 | 27.79371 | -82.93607 | 359° | 13km/h | 9244m | -17.3m/s | -26.4°C | 0% | 0hPa | 0V | 00:00:00 | 00:00:00 | 00:00:00 | |
| ARGUS2 | 2026-09-05 01:15:11 | 27.79268 | -82.93627 | 13° | 26km/h | 9595m | -16.6m/s | -28.2°C | 0% | 0hPa | 0V | 00:00:00 | 00:00:00 | 00:00:00 | |
| ARGUS2 | 2026-09-05 01:14:51 | 27.79117 | -82.93676 | 20° | 35km/h | 9930m | -16.4m/s | -30.9°C | 0% | 0hPa | 0V | 00:00:00 | 00:00:00 | 00:00:00 | |
| ARGUS2 | 2026-09-05 01:14:31 | 27.78926 | -82.93742 | 19° | 40km/h | 10278m | -16.4m/s | -34.0°C | 0% | 0hPa | 0V | 00:00:00 | 00:00:00 | 00:00:00 | |
| ARGUS2 | 2026-09-05 01:14:10 | 27.78734 | -82.93834 | 29° | 42km/h | 10606m | -16.5m/s | -36.9°C | 0% | 0hPa | 0V | 00:00:00 | 00:00:00 | 00:00:00 | |
| ARGUS2 | 2026-09-05 01:13:50 | 27.78540 | -82.93966 | 26° | 42km/h | 10949m | -15.9m/s | -39.6°C | 0% | 0hPa | 0V | 00:00:00 | 00:00:00 | 00:00:00 | |
| ARGUS2 | 2026-09-05 01:13:30 | 27.78371 | -82.93981 | 339° | 33km/h | 11270m | -16.3m/s | -41.3°C | 0% | 0hPa | 0V | 00:00:00 | 00:00:00 | 00:00:00 | |
| ARGUS2 | 2026-09-05 01:13:09 | 27.78217 | -82.93852 | 315° | 40km/h | 11614m | -17.0m/s | -43.5°C | 0% | 0hPa | 0V | 00:00:00 | 00:00:00 | 00:00:00 | |
| ARGUS2 | 2026-09-05 01:12:48 | 27.78069 | -82.93653 | 309° | 47km/h | 11946m | -16.5m/s | -45.9°C | 0% | 0hPa | 0V | 00:00:00 | 00:00:00 | 00:00:00 | |
| ARGUS2 | 2026-09-05 01:12:28 | 27.77930 | -82.93427 | 300° | 46km/h | 12300m | -17.0m/s | -48.7°C | 0% | 0hPa | 0V | 00:00:00 | 00:00:00 | 00:00:00 | |
| ARGUS2 | 2026-09-05 01:12:07 | 27.77818 | -82.93196 | 298° | 47km/h | 12640m | -16.9m/s | -51.6°C | 0% | 0hPa | 0V | 00:00:00 | 00:00:00 | 00:00:00 | |
| ARGUS2 | 2026-09-05 01:11:47 | 27.77706 | -82.92963 | 305° | 40km/h | 12990m | -16.9m/s | -54.2°C | 0% | 0hPa | 0V | 00:00:00 | 00:00:00 | 00:00:00 | |
| ARGUS2 | 2026-09-05 01:11:25 | 27.77594 | -82.92774 | 306° | 35km/h | 13343m | -17.0m/s | -57.2°C | 0% | 0hPa | 0V | 00:00:00 | 00:00:00 | 00:00:00 | |
| ARGUS2 | 2026-09-05 01:10:49 | 27.77322 | -82.92516 | 325° | 37km/h | 13720m | -6.6m/s | -60.0°C | 0% | 0hPa | 0V | 00:00:00 | 00:00:00 | 00:00:00 | |
| ARGUS2 | 2026-09-05 01:10:28 | 27.77181 | -82.92399 | 329° | 31km/h | 13857m | -6.5m/s | -61.2°C | 0% | 0hPa | 0V | 00:00:00 | 00:00:00 | 00:00:00 | |
| ARGUS2 | 2026-09-05 01:10:08 | 27.77026 | -82.92292 | 325° | 35km/h | 14001m | -6.8m/s | -61.9°C | 0% | 0hPa | 0V | 00:00:00 | 00:00:00 | 00:00:00 | |
| ARGUS2 | 2026-09-05 01:09:47 | 27.76885 | -82.92183 | 329° | 31km/h | 14136m | -6.8m/s | -63.1°C | 0% | 0hPa | 0V | 00:00:00 | 00:00:00 | 00:00:00 | |
| ARGUS2 | 2026-09-05 01:09:27 | 27.76741 | -82.92087 | 330° | 31km/h | 14278m | -6.6m/s | -64.3°C | 0% | 0hPa | 0V | 00:00:00 | 00:00:00 | 00:00:00 | |
| ARGUS2 | 2026-09-05 01:09:05 | 27.76601 | -82.91996 | 329° | 31km/h | 14431m | -6.8m/s | -65.6°C | 0% | 0hPa | 0V | 00:00:00 | 00:00:00 | 00:00:00 | |
| ARGUS2 | 2026-09-05 01:08:45 | 27.76453 | -82.91909 | 338° | 35km/h | 14567m | -6.6m/s | -66.5°C | 0% | 0hPa | 0V | 00:00:00 | 00:00:00 | 00:00:00 | |
| ARGUS2 | 2026-09-05 01:08:24 | 27.76310 | -82.91846 | 332° | 22km/h | 14711m | -6.2m/s | -66.8°C | 0% | 0hPa | 0V | 00:00:00 | 00:00:00 | 00:00:00 | |
| ARGUS2 | 2026-09-05 01:08:04 | 27.76212 | -82.91785 | 335° | 22km/h | 14847m | -6.6m/s | -67.2°C | 0% | 0hPa | 0V | 00:00:00 | 00:00:00 | 00:00:00 | |
| ARGUS2 | 2026-09-05 01:07:44 | 27.76118 | -82.91729 | 328° | 20km/h | 14988m | -6.6m/s | -67.3°C | 0% | 0hPa | 0V | 00:00:00 | 00:00:00 | 00:00:00 | |
| ARGUS2 | 2026-09-05 01:07:23 | 27.76084 | -82.91664 | 276° | 13km/h | 15129m | -6.9m/s | -67.3°C | 0% | 0hPa | 0V | 00:00:00 | 00:00:00 | 00:00:00 | |
| ARGUS2 | 2026-09-05 01:05:18 | 27.76096 | -82.90752 | 281° | 40km/h | 16066m | -7.7m/s | -70.6°C | 0% | 0hPa | 0V | 00:00:00 | 00:00:00 | 00:00:00 | |
| ARGUS2 | 2026-09-05 01:04:58 | 27.76076 | -82.90524 | 278° | 37km/h | 16223m | -6.9m/s | -70.8°C | 0% | 0hPa | 0V | 00:00:00 | 00:00:00 | 00:00:00 | |
| ARGUS2 | 2026-09-05 01:04:36 | 27.76034 | -82.90335 | 290° | 27km/h | 16382m | -7.3m/s | -70.9°C | 0% | 0hPa | 0V | 00:00:00 | 00:00:00 | 00:00:00 | |
| ARGUS2 | 2026-09-05 01:04:15 | 27.75971 | -82.90195 | 310° | 26km/h | 16548m | -7.5m/s | -71.3°C | 0% | 0hPa | 0V | 00:00:00 | 00:00:00 | 00:00:00 | |
| ARGUS2 | 2026-09-05 01:03:52 | 27.75906 | -82.90060 | 301° | 20km/h | 16729m | -8.2m/s | -71.7°C | 0% | 0hPa | 0V | 00:00:00 | 00:00:00 | 00:00:00 | |
| ARGUS2 | 2026-09-05 01:03:31 | 27.75858 | -82.89937 | 287° | 27km/h | 16902m | -8.0m/s | -71.2°C | 0% | 0hPa | 0V | 00:00:00 | 00:00:00 | 00:00:00 | |
| ARGUS2 | 2026-09-05 01:03:10 | 27.75870 | -82.89815 | 247° | 24km/h | 17089m | -8.7m/s | -69.9°C | 0% | 0hPa | 0V | 00:00:00 | 00:00:00 | 00:00:00 | |
| ARGUS2 | 2026-09-05 01:02:48 | 27.75909 | -82.89648 | 260° | 35km/h | 17274m | -8.3m/s | -70.1°C | 0% | 0hPa | 0V | 00:00:00 | 00:00:00 | 00:00:00 | |
| ARGUS2 | 2026-09-05 01:02:28 | 27.75896 | -82.89468 | 294° | 33km/h | 17457m | -9.6m/s | -69.3°C | 0% | 0hPa | 0V | 00:00:00 | 00:00:00 | 00:00:00 | |
| ARGUS2 | 2026-09-05 01:02:08 | 27.75843 | -82.89354 | 249° | 15km/h | 17674m | -9.6m/s | -67.6°C | 0% | 0hPa | 0V | 00:00:00 | 00:00:00 | 00:00:00 | |
| ARGUS2 | 2026-09-05 01:01:47 | 27.75937 | -82.89246 | 221° | 44km/h | 17875m | -10.1m/s | -67.4°C | 0% | 0hPa | 0V | 00:00:00 | 00:00:00 | 00:00:00 | |
| ARGUS2 | 2026-09-05 01:01:27 | 27.76143 | -82.89026 | 231° | 49km/h | 18079m | -9.7m/s | -67.1°C | 0% | 0hPa | 0V | 00:00:00 | 00:00:00 | 00:00:00 | |
| ARGUS2 | 2026-09-05 01:01:06 | 27.76276 | -82.88860 | 227° | 33km/h | 18289m | -10.0m/s | -67.6°C | 0% | 0hPa | 0V | 00:00:00 | 00:00:00 | 00:00:00 | |
| ARGUS2 | 2026-09-05 01:00:46 | 27.76354 | -82.88745 | 223° | 26km/h | 18514m | -10.2m/s | -68.0°C | 0% | 0hPa | 0V | 00:00:00 | 00:00:00 | 00:00:00 | |
| ARGUS2 | 2026-09-05 01:00:26 | 27.76411 | -82.88683 | 208° | 7km/h | 18726m | -10.4m/s | -68.9°C | 0% | 0hPa | 0V | 00:00:00 | 00:00:00 | 00:00:00 | |
| ARGUS2 | 2026-09-05 01:00:04 | 27.76445 | -82.88645 | 223° | 18km/h | 18949m | -10.0m/s | -68.3°C | 0% | 0hPa | 0V | 00:00:00 | 00:00:00 | 00:00:00 | |
| ARGUS2 | 2026-09-05 00:59:43 | 27.76489 | -82.88484 | 276° | 38km/h | 19176m | -10.3m/s | -65.0°C | 0% | 0hPa | 0V | 00:00:00 | 00:00:00 | 00:00:00 | |
| ARGUS2 | 2026-09-05 00:59:22 | 27.76494 | -82.88296 | 252° | 26km/h | 19411m | -11.6m/s | -65.0°C | 0% | 0hPa | 0V | 00:00:00 | 00:00:00 | 00:00:00 | |
| ARGUS2 | 2026-09-05 00:58:36 | 27.76447 | -82.87988 | 265° | 22km/h | 19979m | -12.7m/s | -61.7°C | 0% | 0hPa | 0V | 00:00:00 | 00:00:00 | 00:00:00 | |
| ARGUS2 | 2026-09-05 00:58:16 | 27.76497 | -82.87833 | 231° | 24km/h | 20248m | -13.9m/s | -59.8°C | 0% | 0hPa | 0V | 00:00:00 | 00:00:00 | 00:00:00 | |
| ARGUS2 | 2026-09-05 00:57:55 | 27.76585 | -82.87717 | 237° | 35km/h | 20541m | -14.4m/s | -60.2°C | 0% | 0hPa | 0V | 00:00:00 | 00:00:00 | 00:00:00 | |
| ARGUS2 | 2026-09-05 00:57:35 | 27.76638 | -82.87502 | 271° | 40km/h | 20829m | -13.9m/s | -61.0°C | 0% | 0hPa | 0V | 00:00:00 | 00:00:00 | 00:00:00 | |
| ARGUS2 | 2026-09-05 00:57:15 | 27.76633 | -82.87277 | 286° | 49km/h | 21137m | -14.3m/s | -60.6°C | 0% | 0hPa | 0V | 00:00:00 | 00:00:00 | 00:00:00 | |
| ARGUS2 | 2026-09-05 00:56:54 | 27.76599 | -82.87045 | 282° | 42km/h | 21446m | -15.2m/s | -58.8°C | 0% | 0hPa | 0V | 00:00:00 | 00:00:00 | 00:00:00 | |
| ARGUS2 | 2026-09-05 00:56:33 | 27.76586 | -82.86803 | 266° | 38km/h | 21787m | -16.8m/s | -59.9°C | 0% | 0hPa | 0V | 00:00:00 | 00:00:00 | 00:00:00 | |
| ARGUS2 | 2026-09-05 00:56:13 | 27.76643 | -82.86568 | 259° | 42km/h | 22135m | -16.5m/s | -60.2°C | 0% | 0hPa | 0V | 00:00:00 | 00:00:00 | 00:00:00 | |
| ARGUS2 | 2026-09-05 00:55:53 | 27.76645 | -82.86323 | 278° | 42km/h | 22472m | -17.2m/s | -59.9°C | 0% | 0hPa | 0V | 00:00:00 | 00:00:00 | 00:00:00 | |
| ARGUS2 | 2026-09-05 00:55:32 | 27.76621 | -82.86053 | 278° | 55km/h | 22811m | -16.5m/s | -58.3°C | 0% | 0hPa | 0V | 00:00:00 | 00:00:00 | 00:00:00 | |
| ARGUS2 | 2026-09-05 00:55:12 | 27.76616 | -82.85752 | 258° | 46km/h | 23167m | -17.5m/s | -54.4°C | 0% | 0hPa | 0V | 00:00:00 | 00:00:00 | 00:00:00 | |
| ARGUS2 | 2026-09-05 00:54:51 | 27.76668 | -82.85480 | 249° | 60km/h | 23524m | -17.5m/s | -53.1°C | 0% | 0hPa | 0V | 00:00:00 | 00:00:00 | 00:00:00 | |
| ARGUS2 | 2026-09-05 00:54:31 | 27.76740 | -82.85174 | 256° | 58km/h | 23909m | -18.3m/s | -53.2°C | 0% | 0hPa | 0V | 00:00:00 | 00:00:00 | 00:00:00 | |
| ARGUS2 | 2026-09-05 00:54:10 | 27.76759 | -82.84801 | 277° | 66km/h | 24307m | -20.2m/s | -52.2°C | 0% | 0hPa | 0V | 00:00:00 | 00:00:00 | 00:00:00 | |
| ARGUS2 | 2026-09-05 00:53:48 | 27.76611 | -82.84438 | 304° | 49km/h | 24789m | -21.0m/s | -50.0°C | 0% | 0hPa | 0V | 00:00:00 | 00:00:00 | 00:00:00 | |
| ARGUS2 | 2026-09-05 00:53:07 | 27.76567 | -82.84014 | 285° | 51km/h | 25675m | -22.0m/s | -48.5°C | 0% | 0hPa | 0V | 00:00:00 | 00:00:00 | 00:00:00 | |
| ARGUS2 | 2026-09-05 00:52:46 | 27.76497 | -82.83649 | 281° | 64km/h | 26136m | -23.7m/s | -46.4°C | 0% | 0hPa | 0V | 00:00:00 | 00:00:00 | 00:00:00 | |
| ARGUS2 | 2026-09-05 00:52:26 | 27.76435 | -82.83448 | 300° | 20km/h | 26649m | -23.7m/s | -46.4°C | 0% | 0hPa | 0V | 00:00:00 | 00:00:00 | 00:00:00 | |
| ARGUS2 | 2026-09-05 00:52:04 | 27.76391 | -82.83268 | 269° | 37km/h | 27188m | -26.3m/s | -48.0°C | 0% | 0hPa | 0V | 00:00:00 | 00:00:00 | 00:00:00 | |
| ARGUS2 | 2026-09-05 00:51:44 | 27.76452 | -82.83047 | 247° | 40km/h | 27728m | -27.2m/s | -46.3°C | 0% | 0hPa | 0V | 00:00:00 | 00:00:00 | 00:00:00 | |
| ARGUS2 | 2026-09-05 00:51:23 | 27.76624 | -82.82784 | 236° | 73km/h | 28324m | -29.0m/s | -45.8°C | 0% | 0hPa | 0V | 00:00:00 | 00:00:00 | 00:00:00 | |
| ARGUS2 | 2026-09-05 00:51:03 | 27.76760 | -82.82484 | 254° | 37km/h | 28907m | -29.6m/s | -45.7°C | 0% | 0hPa | 0V | 00:00:00 | 00:00:00 | 00:00:00 | |
| ARGUS2 | 2026-09-05 00:50:43 | 27.76832 | -82.82302 | 239° | 31km/h | 29546m | -30.8m/s | -45.5°C | 0% | 0hPa | 0V | 00:00:00 | 00:00:00 | 00:00:00 | |
| ARGUS2 | 2026-09-05 00:50:22 | 27.76897 | -82.82123 | 264° | 55km/h | 30182m | -33.0m/s | -47.3°C | 0% | 0hPa | 0V | 00:00:00 | 00:00:00 | 00:00:00 | |
| ARGUS2 | 2026-09-05 00:50:02 | 27.76878 | -82.81759 | 275° | 58km/h | 30901m | -35.9m/s | -46.1°C | 0% | 0hPa | 0V | 00:00:00 | 00:00:00 | 00:00:00 | |
| ARGUS2 | 2026-09-05 00:49:39 | 27.76890 | -82.81474 | 242° | 42km/h | 31723m | -38.8m/s | -40.7°C | 0% | 0hPa | 0V | 00:00:00 | 00:00:00 | 00:00:00 | |
| ARGUS2 | 2026-09-05 00:49:18 | 27.77111 | -82.81188 | 236° | 64km/h | 32551m | -39.7m/s | -43.5°C | 0% | 0hPa | 0V | 00:00:00 | 00:00:00 | 00:00:00 | |
| ARGUS2 | 2026-09-05 00:48:59 | 27.77197 | -82.80840 | 263° | 60km/h | 33545m | -56.1m/s | -39.7°C | 0% | 0hPa | 0V | 00:00:00 | 00:00:00 | 00:00:00 | |
| ARGUS2 | 2026-09-05 00:48:38 | 27.77298 | -82.80465 | 246° | 69km/h | 34702m | -52.1m/s | -36.0°C | 0% | 0hPa | 0V | 00:00:00 | 00:00:00 | 00:00:00 | |
| ARGUS2 | 2026-09-05 00:48:16 | 27.77417 | -82.80039 | 271° | 49km/h | 35010m | 6.6m/s | -36.6°C | 0% | 0hPa | 0V | 00:00:00 | 00:00:00 | 00:00:00 | |
| ARGUS2 | 2026-09-05 00:47:56 | 27.77592 | -82.79673 | 212° | 40km/h | 34875m | 4.3m/s | -36.7°C | 0% | 0hPa | 0V | 00:00:00 | 00:00:00 | 00:00:00 | |
| ARGUS2 | 2026-09-05 00:47:33 | 27.77771 | -82.79314 | 257° | 93km/h | 34749m | 7.6m/s | -36.6°C | 0% | 0hPa | 0V | 00:00:00 | 00:00:00 | 00:00:00 | |
| ARGUS2 | 2026-09-05 00:47:12 | 27.77939 | -82.78980 | 201° | 69km/h | 34615m | 3.1m/s | -37.3°C | 0% | 0hPa | 0V | 00:00:00 | 00:00:00 | 00:00:00 | |
| ARGUS2 | 2026-09-05 00:46:51 | 27.78040 | -82.78708 | 297° | 57km/h | 34485m | 6.9m/s | -37.3°C | 0% | 0hPa | 0V | 00:00:00 | 00:00:00 | 00:00:00 | |
| ARGUS2 | 2026-09-05 00:46:31 | 27.78147 | -82.78349 | 244° | 106km/h | 34368m | 6.5m/s | -37.7°C | 0% | 0hPa | 0V | 00:00:00 | 00:00:00 | 00:00:00 | |
| ARGUS2 | 2026-09-05 00:46:10 | 27.78275 | -82.78043 | 183° | 44km/h | 34254m | 4.6m/s | -38.0°C | 0% | 0hPa | 0V | 00:00:00 | 00:00:00 | 00:00:00 | |
| ARGUS2 | 2026-09-05 00:45:49 | 27.78330 | -82.77751 | 287° | 86km/h | 34155m | 7.8m/s | -38.7°C | 0% | 0hPa | 0V | 00:00:00 | 00:00:00 | 00:00:00 | |
| ARGUS2 | 2026-09-05 00:45:29 | 27.78399 | -82.77367 | 257° | 104km/h | 34062m | -1.3m/s | -39.4°C | 0% | 0hPa | 0V | 00:00:00 | 00:00:00 | 00:00:00 | |
| ARGUS2 | 2026-09-05 00:45:08 | 27.78508 | -82.76979 | 214° | 40km/h | 33969m | 7.2m/s | -40.0°C | 0% | 0hPa | 0V | 00:00:00 | 00:00:00 | 00:00:00 | |
| ARGUS2 | 2026-09-05 00:44:47 | 27.78565 | -82.76651 | 274° | 93km/h | 33862m | 6.4m/s | -39.8°C | 0% | 0hPa | 0V | 00:00:00 | 00:00:00 | 00:00:00 | |
| ARGUS2 | 2026-09-05 00:44:26 | 27.78706 | -82.76307 | 201° | 69km/h | 33740m | 3.2m/s | -39.9°C | 0% | 0hPa | 0V | 00:00:00 | 00:00:00 | 00:00:00 | |
| ARGUS2 | 2026-09-05 00:44:05 | 27.78823 | -82.76048 | 298° | 53km/h | 33606m | 12.1m/s | -40.2°C | 0% | 0hPa | 0V | 00:00:00 | 00:00:00 | 00:00:00 | |
| ARGUS2 | 2026-09-05 00:43:22 | 27.78955 | -82.75479 | 306° | 38km/h | 33313m | 7.2m/s | -40.3°C | 0% | 0hPa | 0V | 00:00:00 | 00:00:00 | 00:00:00 | |
| ARGUS2 | 2026-09-05 00:43:02 | 27.79051 | -82.75126 | 251° | 111km/h | 33167m | 3.0m/s | -40.8°C | 0% | 0hPa | 0V | 00:00:00 | 00:00:00 | 00:00:00 | |
| ARGUS2 | 2026-09-05 00:42:40 | 27.79168 | -82.74732 | 218° | 29km/h | 33030m | 6.0m/s | -42.3°C | 0% | 0hPa | 0V | 00:00:00 | 00:00:00 | 00:00:00 | |
| ARGUS2 | 2026-09-05 00:42:19 | 27.79215 | -82.74316 | 262° | 117km/h | 32897m | 0.1m/s | -43.1°C | 0% | 0hPa | 0V | 00:00:00 | 00:00:00 | 00:00:00 | |
| ARGUS2 | 2026-09-05 00:41:58 | 27.79317 | -82.73920 | 213° | 77km/h | 32758m | 8.4m/s | -43.6°C | 0% | 0hPa | 0V | 00:00:00 | 00:00:00 | 00:00:00 | |
| ARGUS2 | 2026-09-05 00:41:37 | 27.79452 | -82.73627 | 198° | 46km/h | 32643m | 3.5m/s | -43.7°C | 0% | 0hPa | 0V | 00:00:00 | 00:00:00 | 00:00:00 | |
| ARGUS2 | 2026-09-05 00:41:17 | 27.79638 | -82.73357 | 234° | 73km/h | 32518m | 10.6m/s | -43.1°C | 0% | 0hPa | 0V | 00:00:00 | 00:00:00 | 00:00:00 | |
| ARGUS2 | 2026-09-05 00:40:57 | 27.79849 | -82.73049 | 234° | 82km/h | 32376m | 4.1m/s | -42.0°C | 0% | 0hPa | 0V | 00:00:00 | 00:00:00 | 00:00:00 | |
| ARGUS2 | 2026-09-05 00:40:36 | 27.80064 | -82.72787 | 200° | 46km/h | 32246m | 7.3m/s | -41.0°C | 0% | 0hPa | 0V | 00:00:00 | 00:00:00 | 00:00:00 | |
| ARGUS2 | 2026-09-05 00:40:16 | 27.80264 | -82.72506 | 232° | 68km/h | 32133m | 7.5m/s | -41.5°C | 0% | 0hPa | 0V | 00:00:00 | 00:00:00 | 00:00:00 | |
| ARGUS2 | 2026-09-05 00:39:55 | 27.80403 | -82.72236 | 259° | 86km/h | 32027m | 6.1m/s | -42.0°C | 0% | 0hPa | 0V | 00:00:00 | 00:00:00 | 00:00:00 | |
| ARGUS2 | 2026-09-05 00:39:35 | 27.80480 | -82.71982 | 261° | 26km/h | 31926m | 8.0m/s | -42.7°C | 0% | 0hPa | 0V | 00:00:00 | 00:00:00 | 00:00:00 | |
| ARGUS2 | 2026-09-05 00:39:14 | 27.80490 | -82.71758 | 207° | 35km/h | 31832m | 5.6m/s | -44.6°C | 0% | 0hPa | 0V | 00:00:00 | 00:00:00 | 00:00:00 | |
| ARGUS2 | 2026-09-05 00:38:54 | 27.80470 | -82.71478 | 290° | 80km/h | 31723m | 9.2m/s | -45.0°C | 0% | 0hPa | 0V | 00:00:00 | 00:00:00 | 00:00:00 | |
| ARGUS2 | 2026-09-05 00:38:32 | 27.80392 | -82.71186 | 293° | 29km/h | 31590m | 9.8m/s | -47.0°C | 0% | 0hPa | 0V | 00:00:00 | 00:00:00 | 00:00:00 | |
| ARGUS2 | 2026-09-05 00:38:11 | 27.80396 | -82.70885 | 279° | 68km/h | 31428m | 8.6m/s | -47.3°C | 0% | 0hPa | 0V | 00:00:00 | 00:00:00 | 00:00:00 | |
| ARGUS2 | 2026-09-05 00:37:50 | 27.80445 | -82.70595 | 239° | 38km/h | 31272m | 10.9m/s | -47.1°C | 0% | 0hPa | 0V | 00:00:00 | 00:00:00 | 00:00:00 | |
| ARGUS2 | 2026-09-05 00:37:28 | 27.80498 | -82.70290 | 263° | 78km/h | 31108m | 11.6m/s | -47.9°C | 0% | 0hPa | 0V | 00:00:00 | 00:00:00 | 00:00:00 | |
| ARGUS2 | 2026-09-05 00:37:07 | 27.80512 | -82.69953 | 274° | 68km/h | 30960m | 5.8m/s | -47.6°C | 0% | 0hPa | 0V | 00:00:00 | 00:00:00 | 00:00:00 | |
| ARGUS2 | 2026-09-05 00:36:23 | 27.80619 | -82.69227 | 252° | 71km/h | 30656m | 9.0m/s | -47.3°C | 0% | 0hPa | 0V | 00:00:00 | 00:00:00 | 00:00:00 | |
| ARGUS2 | 2026-09-05 00:36:02 | 27.80667 | -82.68808 | 260° | 95km/h | 30512m | 8.6m/s | -47.0°C | 0% | 0hPa | 0V | 00:00:00 | 00:00:00 | 00:00:00 | |
| ARGUS2 | 2026-09-05 00:35:40 | 27.80725 | -82.68375 | 264° | 53km/h | 30375m | 7.5m/s | -47.3°C | 0% | 0hPa | 0V | 00:00:00 | 00:00:00 | 00:00:00 | |
| ARGUS2 | 2026-09-05 00:35:20 | 27.80833 | -82.68016 | 251° | 78km/h | 30239m | 2.7m/s | -47.0°C | 0% | 0hPa | 0V | 00:00:00 | 00:00:00 | 00:00:00 | |
| ARGUS2 | 2026-09-05 00:34:59 | 27.80960 | -82.67731 | 210° | 29km/h | 30097m | 7.5m/s | -46.7°C | 0% | 0hPa | 0V | 00:00:00 | 00:00:00 | 00:00:00 | |
| ARGUS2 | 2026-09-05 00:34:38 | 27.81076 | -82.67501 | 247° | 66km/h | 29953m | 9.7m/s | -45.8°C | 0% | 0hPa | 0V | 00:00:00 | 00:00:00 | 00:00:00 | |
| ARGUS2 | 2026-09-05 00:34:18 | 27.81212 | -82.67313 | 199° | 33km/h | 29798m | 6.5m/s | -44.8°C | 0% | 0hPa | 0V | 00:00:00 | 00:00:00 | 00:00:00 | |
| ARGUS2 | 2026-09-05 00:33:57 | 27.81349 | -82.67176 | 246° | 35km/h | 29643m | 6.3m/s | -44.1°C | 0% | 0hPa | 0V | 00:00:00 | 00:00:00 | 00:00:00 | |
| ARGUS2 | 2026-09-05 00:33:35 | 27.81493 | -82.67123 | 208° | 38km/h | 29485m | 12.4m/s | -43.5°C | 0% | 0hPa | 0V | 00:00:00 | 00:00:00 | 00:00:00 | |
| ARGUS2 | 2026-09-05 00:33:14 | 27.81631 | -82.67024 | 206° | 24km/h | 29324m | 9.0m/s | -42.8°C | 0% | 0hPa | 0V | 00:00:00 | 00:00:00 | 00:00:00 | |
| ARGUS2 | 2026-09-05 00:32:53 | 27.81762 | -82.66897 | 237° | 53km/h | 29171m | 6.8m/s | -41.9°C | 0% | 0hPa | 0V | 00:00:00 | 00:00:00 | 00:00:00 | |
| ARGUS2 | 2026-09-05 00:32:11 | 27.82008 | -82.66532 | 253° | 53km/h | 28869m | 6.4m/s | -41.0°C | 0% | 0hPa | 0V | 00:00:00 | 00:00:00 | 00:00:00 | |
| ARGUS2 | 2026-09-05 00:31:49 | 27.82106 | -82.66350 | 265° | 44km/h | 28712m | 6.2m/s | -40.8°C | 0% | 0hPa | 0V | 00:00:00 | 00:00:00 | 00:00:00 | |
| ARGUS2 | 2026-09-05 00:31:29 | 27.82123 | -82.66196 | 288° | 38km/h | 28578m | 9.6m/s | -41.6°C | 0% | 0hPa | 0V | 00:00:00 | 00:00:00 | 00:00:00 | |
| ARGUS2 | 2026-09-05 00:31:09 | 27.82082 | -82.65964 | 287° | 35km/h | 28451m | 7.7m/s | -41.2°C | 0% | 0hPa | 0V | 00:00:00 | 00:00:00 | 00:00:00 | |
| ARGUS2 | 2026-09-05 00:30:48 | 27.82060 | -82.65723 | 265° | 64km/h | 28337m | 0.7m/s | -40.7°C | 0% | 0hPa | 0V | 00:00:00 | 00:00:00 | 00:00:00 | |
| ARGUS2 | 2026-09-05 00:30:26 | 27.82077 | -82.65374 | 241° | 68km/h | 28208m | 2.3m/s | -41.2°C | 0% | 0hPa | 0V | 00:00:00 | 00:00:00 | 00:00:00 | |
| ARGUS2 | 2026-09-05 00:30:05 | 27.82121 | -82.65008 | 294° | 71km/h | 28110m | 3.8m/s | -42.7°C | 0% | 0hPa | 0V | 00:00:00 | 00:00:00 | 00:00:00 | |
| ARGUS2 | 2026-09-05 00:29:44 | 27.82186 | -82.64577 | 263° | 69km/h | 28008m | 6.3m/s | -43.9°C | 0% | 0hPa | 0V | 00:00:00 | 00:00:00 | 00:00:00 | |
| ARGUS2 | 2026-09-05 00:29:24 | 27.82232 | -82.64275 | 264° | 68km/h | 27900m | 8.6m/s | -45.6°C | 0% | 0hPa | 0V | 00:00:00 | 00:00:00 | 00:00:00 | |
| ARGUS2 | 2026-09-05 00:29:04 | 27.82224 | -82.63987 | 307° | 55km/h | 27777m | 2.8m/s | -46.5°C | 0% | 0hPa | 0V | 00:00:00 | 00:00:00 | 00:00:00 | |
| ARGUS2 | 2026-09-05 00:28:43 | 27.82247 | -82.63698 | 266° | 68km/h | 27647m | 6.0m/s | -47.2°C | 0% | 0hPa | 0V | 00:00:00 | 00:00:00 | 00:00:00 | |
| ARGUS2 | 2026-09-05 00:28:23 | 27.82275 | -82.63393 | 259° | 69km/h | 27497m | 10.4m/s | -47.8°C | 0% | 0hPa | 0V | 00:00:00 | 00:00:00 | 00:00:00 | |
| ARGUS2 | 2026-09-05 00:28:02 | 27.82286 | -82.63067 | 274° | 51km/h | 27333m | 8.4m/s | -47.5°C | 0% | 0hPa | 0V | 00:00:00 | 00:00:00 | 00:00:00 | |
| ARGUS2 | 2026-09-05 00:27:42 | 27.82294 | -82.62748 | 290° | 47km/h | 27159m | 9.4m/s | -47.4°C | 0% | 0hPa | 0V | 00:00:00 | 00:00:00 | 00:00:00 | |
| ARGUS2 | 2026-09-05 00:27:20 | 27.82270 | -82.62443 | 306° | 44km/h | 26981m | 9.2m/s | -46.8°C | 0% | 0hPa | 0V | 00:00:00 | 00:00:00 | 00:00:00 | |
| ARGUS2 | 2026-09-05 00:26:59 | 27.82201 | -82.62155 | 275° | 60km/h | 26810m | 5.6m/s | -45.6°C | 0% | 0hPa | 0V | 00:00:00 | 00:00:00 | 00:00:00 | |
| ARGUS2 | 2026-09-05 00:26:38 | 27.82106 | -82.61877 | 281° | 49km/h | 26649m | 4.5m/s | -44.9°C | 0% | 0hPa | 0V | 00:00:00 | 00:00:00 | 00:00:00 | |
| ARGUS2 | 2026-09-05 00:26:18 | 27.81993 | -82.61646 | 297° | 29km/h | 26507m | 6.9m/s | -45.2°C | 0% | 0hPa | 0V | 00:00:00 | 00:00:00 | 00:00:00 | |
| ARGUS2 | 2026-09-05 00:25:57 | 27.81877 | -82.61452 | 306° | 27km/h | 26391m | 5.6m/s | -46.5°C | 0% | 0hPa | 0V | 00:00:00 | 00:00:00 | 00:00:00 | |
| ARGUS2 | 2026-09-05 00:25:37 | 27.81742 | -82.61171 | 275° | 51km/h | 26284m | 7.4m/s | -46.4°C | 0% | 0hPa | 0V | 00:00:00 | 00:00:00 | 00:00:00 | |
| ARGUS2 | 2026-09-05 00:25:16 | 27.81649 | -82.60797 | 291° | 46km/h | 26186m | 4.9m/s | -46.6°C | 0% | 0hPa | 0V | 00:00:00 | 00:00:00 | 00:00:00 | |
| ARGUS2 | 2026-09-05 00:24:56 | 27.81518 | -82.60349 | 290° | 86km/h | 26086m | 6.6m/s | -47.3°C | 0% | 0hPa | 0V | 00:00:00 | 00:00:00 | 00:00:00 | |
| ARGUS2 | 2026-09-05 00:24:35 | 27.81373 | -82.59894 | 286° | 93km/h | 25986m | 5.3m/s | -48.2°C | 0% | 0hPa | 0V | 00:00:00 | 00:00:00 | 00:00:00 | |
| ARGUS2 | 2026-09-05 00:24:15 | 27.81236 | -82.59456 | 275° | 73km/h | 25883m | 3.9m/s | -49.3°C | 0% | 0hPa | 0V | 00:00:00 | 00:00:00 | 00:00:00 | |
| ARGUS2 | 2026-09-05 00:23:53 | 27.81133 | -82.59085 | 266° | 58km/h | 25777m | 6.1m/s | -50.3°C | 0% | 0hPa | 0V | 00:00:00 | 00:00:00 | 00:00:00 | |
| ARGUS2 | 2026-09-05 00:23:33 | 27.81084 | -82.58749 | 262° | 55km/h | 25669m | 6.2m/s | -51.0°C | 0% | 0hPa | 0V | 00:00:00 | 00:00:00 | 00:00:00 | |
| ARGUS2 | 2026-09-05 00:23:12 | 27.81090 | -82.58458 | 279° | 53km/h | 25554m | 6.9m/s | -52.2°C | 0% | 0hPa | 0V | 00:00:00 | 00:00:00 | 00:00:00 | |
| ARGUS2 | 2026-09-05 00:22:52 | 27.81097 | -82.58209 | 246° | 27km/h | 25438m | 6.9m/s | -52.1°C | 0% | 0hPa | 0V | 00:00:00 | 00:00:00 | 00:00:00 | |
| ARGUS2 | 2026-09-05 00:22:32 | 27.81107 | -82.57985 | 286° | 37km/h | 25310m | 5.1m/s | -52.2°C | 0% | 0hPa | 0V | 00:00:00 | 00:00:00 | 00:00:00 | |
| ARGUS2 | 2026-09-05 00:22:11 | 27.81096 | -82.57763 | 289° | 49km/h | 25187m | 5.2m/s | -52.0°C | 0% | 0hPa | 0V | 00:00:00 | 00:00:00 | 00:00:00 | |
| ARGUS2 | 2026-09-05 00:21:51 | 27.81056 | -82.57480 | 294° | 46km/h | 25065m | 6.2m/s | -52.5°C | 0% | 0hPa | 0V | 00:00:00 | 00:00:00 | 00:00:00 | |
| ARGUS2 | 2026-09-05 00:21:30 | 27.80971 | -82.57156 | 275° | 82km/h | 24955m | 4.6m/s | -54.3°C | 0% | 0hPa | 0V | 00:00:00 | 00:00:00 | 00:00:00 | |
| ARGUS2 | 2026-09-05 00:21:10 | 27.80866 | -82.56773 | 265° | 68km/h | 24840m | 5.3m/s | -55.2°C | 0% | 0hPa | 0V | 00:00:00 | 00:00:00 | 00:00:00 | |
| ARGUS2 | 2026-09-05 00:20:49 | 27.80819 | -82.56407 | 269° | 77km/h | 24725m | 5.6m/s | -55.2°C | 0% | 0hPa | 0V | 00:00:00 | 00:00:00 | 00:00:00 | |
| ARGUS2 | 2026-09-05 00:20:29 | 27.80849 | -82.55999 | 258° | 80km/h | 24599m | 4.9m/s | -55.9°C | 0% | 0hPa | 0V | 00:00:00 | 00:00:00 | 00:00:00 | |
| ARGUS2 | 2026-09-05 00:20:08 | 27.80921 | -82.55625 | 259° | 75km/h | 24478m | 4.9m/s | -55.5°C | 0% | 0hPa | 0V | 00:00:00 | 00:00:00 | 00:00:00 | |
| ARGUS2 | 2026-09-05 00:19:48 | 27.80954 | -82.55195 | 273° | 55km/h | 24345m | 7.2m/s | -55.1°C | 0% | 0hPa | 0V | 00:00:00 | 00:00:00 | 00:00:00 | |
| ARGUS2 | 2026-09-05 00:19:27 | 27.80994 | -82.54806 | 264° | 73km/h | 24221m | 6.7m/s | -54.6°C | 0% | 0hPa | 0V | 00:00:00 | 00:00:00 | 00:00:00 | |
| ARGUS2 | 2026-09-05 00:19:07 | 27.81058 | -82.54458 | 243° | 60km/h | 24092m | 6.8m/s | -54.7°C | 0% | 0hPa | 0V | 00:00:00 | 00:00:00 | 00:00:00 | |
| ARGUS2 | 2026-09-05 00:18:46 | 27.81113 | -82.54180 | 254° | 40km/h | 23966m | 6.9m/s | -54.6°C | 0% | 0hPa | 0V | 00:00:00 | 00:00:00 | 00:00:00 | |
| ARGUS2 | 2026-09-05 00:18:25 | 27.81152 | -82.53952 | 259° | 58km/h | 23848m | 5.3m/s | -54.3°C | 0% | 0hPa | 0V | 00:00:00 | 00:00:00 | 00:00:00 | |
| ARGUS2 | 2026-09-05 00:18:05 | 27.81207 | -82.53672 | 249° | 55km/h | 23727m | 6.2m/s | -54.1°C | 0% | 0hPa | 0V | 00:00:00 | 00:00:00 | 00:00:00 | |
| ARGUS2 | 2026-09-05 00:17:44 | 27.81290 | -82.53405 | 237° | 60km/h | 23618m | 6.4m/s | -54.2°C | 0% | 0hPa | 0V | 00:00:00 | 00:00:00 | 00:00:00 | |
| ARGUS2 | 2026-09-05 00:17:23 | 27.81401 | -82.53127 | 231° | 47km/h | 23509m | 3.6m/s | -54.3°C | 0% | 0hPa | 0V | 00:00:00 | 00:00:00 | 00:00:00 | |
| ARGUS2 | 2026-09-05 00:17:03 | 27.81449 | -82.52878 | 259° | 44km/h | 23415m | 5.7m/s | -54.8°C | 0% | 0hPa | 0V | 00:00:00 | 00:00:00 | 00:00:00 | |
| ARGUS2 | 2026-09-05 00:16:43 | 27.81493 | -82.52621 | 246° | 55km/h | 23318m | 3.0m/s | -55.5°C | 0% | 0hPa | 0V | 00:00:00 | 00:00:00 | 00:00:00 | |
| ARGUS2 | 2026-09-05 00:16:23 | 27.81557 | -82.52380 | 248° | 57km/h | 23225m | 3.8m/s | -56.8°C | 0% | 0hPa | 0V | 00:00:00 | 00:00:00 | 00:00:00 | |
| ARGUS2 | 2026-09-05 00:15:41 | 27.81617 | -82.51694 | 270° | 57km/h | 23005m | 7.1m/s | -57.4°C | 0% | 0hPa | 0V | 00:00:00 | 00:00:00 | 00:00:00 | |
| ARGUS2 | 2026-09-05 00:15:21 | 27.81643 | -82.51393 | 252° | 33km/h | 22876m | 5.2m/s | -58.1°C | 0% | 0hPa | 0V | 00:00:00 | 00:00:00 | 00:00:00 | |
| ARGUS2 | 2026-09-05 00:15:00 | 27.81649 | -82.51099 | 273° | 53km/h | 22744m | 6.4m/s | -57.4°C | 0% | 0hPa | 0V | 00:00:00 | 00:00:00 | 00:00:00 | |
| ARGUS2 | 2026-09-05 00:14:40 | 27.81643 | -82.50721 | 274° | 60km/h | 22610m | 6.3m/s | -57.5°C | 0% | 0hPa | 0V | 00:00:00 | 00:00:00 | 00:00:00 | |
| ARGUS2 | 2026-09-05 00:14:19 | 27.81664 | -82.50402 | 287° | 53km/h | 22487m | 4.8m/s | -57.7°C | 0% | 0hPa | 0V | 00:00:00 | 00:00:00 | 00:00:00 | |
| ARGUS2 | 2026-09-05 00:13:59 | 27.81680 | -82.50141 | 267° | 46km/h | 22369m | 6.2m/s | -58.9°C | 0% | 0hPa | 0V | 00:00:00 | 00:00:00 | 00:00:00 | |
| ARGUS2 | 2026-09-05 00:13:38 | 27.81699 | -82.49868 | 264° | 44km/h | 22261m | 4.0m/s | -59.4°C | 0% | 0hPa | 0V | 00:00:00 | 00:00:00 | 00:00:00 | |
| ARGUS2 | 2026-09-05 00:13:17 | 27.81737 | -82.49601 | 251° | 49km/h | 22164m | 5.4m/s | -59.1°C | 0% | 0hPa | 0V | 00:00:00 | 00:00:00 | 00:00:00 | |
| ARGUS2 | 2026-09-05 00:12:56 | 27.81812 | -82.49306 | 265° | 49km/h | 22065m | 5.1m/s | -59.7°C | 0% | 0hPa | 0V | 00:00:00 | 00:00:00 | 00:00:00 | |
| ARGUS2 | 2026-09-05 00:12:36 | 27.81875 | -82.49070 | 255° | 42km/h | 21970m | 5.6m/s | -60.3°C | 0% | 0hPa | 0V | 00:00:00 | 00:00:00 | 00:00:00 | |
| ARGUS2 | 2026-09-05 00:12:16 | 27.81954 | -82.48827 | 249° | 35km/h | 21868m | 5.2m/s | -59.9°C | 0% | 0hPa | 0V | 00:00:00 | 00:00:00 | 00:00:00 | |
| ARGUS2 | 2026-09-05 00:11:55 | 27.81999 | -82.48596 | 256° | 46km/h | 21768m | 6.2m/s | -59.7°C | 0% | 0hPa | 0V | 00:00:00 | 00:00:00 | 00:00:00 | |
| ARGUS2 | 2026-09-05 00:11:35 | 27.82021 | -82.48328 | 270° | 51km/h | 21660m | 6.0m/s | -59.5°C | 0% | 0hPa | 0V | 00:00:00 | 00:00:00 | 00:00:00 | |
| ARGUS2 | 2026-09-05 00:11:14 | 27.82033 | -82.48081 | 260° | 47km/h | 21550m | 4.7m/s | -59.7°C | 0% | 0hPa | 0V | 00:00:00 | 00:00:00 | 00:00:00 | |
| ARGUS2 | 2026-09-05 00:10:54 | 27.82026 | -82.47842 | 262° | 49km/h | 21436m | 5.6m/s | -60.5°C | 0% | 0hPa | 0V | 00:00:00 | 00:00:00 | 00:00:00 | |
| ARGUS2 | 2026-09-05 00:10:33 | 27.82000 | -82.47630 | 272° | 44km/h | 21327m | 4.6m/s | -62.4°C | 0% | 0hPa | 0V | 00:00:00 | 00:00:00 | 00:00:00 | |
| ARGUS2 | 2026-09-05 00:10:13 | 27.81937 | -82.47418 | 301° | 24km/h | 21223m | 3.9m/s | -62.4°C | 0% | 0hPa | 0V | 00:00:00 | 00:00:00 | 00:00:00 | |
| ARGUS2 | 2026-09-05 00:09:51 | 27.81889 | -82.47246 | 320° | 27km/h | 21130m | 4.6m/s | -62.7°C | 0% | 0hPa | 0V | 00:00:00 | 00:00:00 | 00:00:00 | |
| ARGUS2 | 2026-09-05 00:09:30 | 27.81822 | -82.47069 | 297° | 42km/h | 21041m | 4.8m/s | -62.8°C | 0% | 0hPa | 0V | 00:00:00 | 00:00:00 | 00:00:00 | |
| ARGUS2 | 2026-09-05 00:08:49 | 27.81786 | -82.46690 | 271° | 26km/h | 20889m | 4.3m/s | -63.0°C | 0% | 0hPa | 0V | 00:00:00 | 00:00:00 | 00:00:00 | |
| ARGUS2 | 2026-09-05 00:08:27 | 27.81817 | -82.46577 | 239° | 18km/h | 20805m | 3.5m/s | -62.9°C | 0% | 0hPa | 0V | 00:00:00 | 00:00:00 | 00:00:00 | |
| ARGUS2 | 2026-09-05 00:07:46 | 27.81862 | -82.46471 | 129° | 11km/h | 20628m | 5.5m/s | -62.8°C | 0% | 0hPa | 0V | 00:00:00 | 00:00:00 | 00:00:00 | |
| ARGUS2 | 2026-09-05 00:07:26 | 27.81882 | -82.46423 | 270° | 9km/h | 20542m | 3.6m/s | -62.4°C | 0% | 0hPa | 0V | 00:00:00 | 00:00:00 | 00:00:00 | |
| ARGUS2 | 2026-09-05 00:07:06 | 27.81911 | -82.46351 | 260° | 24km/h | 20455m | 4.7m/s | -62.4°C | 0% | 0hPa | 0V | 00:00:00 | 00:00:00 | 00:00:00 | |
| ARGUS2 | 2026-09-05 00:06:45 | 27.81913 | -82.46226 | 267° | 24km/h | 20368m | 4.7m/s | -63.2°C | 0% | 0hPa | 0V | 00:00:00 | 00:00:00 | 00:00:00 | |
| ARGUS2 | 2026-09-05 00:06:25 | 27.81917 | -82.46101 | 270° | 11km/h | 20265m | 6.1m/s | -64.7°C | 0% | 0hPa | 0V | 00:00:00 | 00:00:00 | 00:00:00 | |
| ARGUS2 | 2026-09-05 00:06:04 | 27.81902 | -82.46066 | 282° | 22km/h | 20165m | 4.9m/s | -64.7°C | 0% | 0hPa | 0V | 00:00:00 | 00:00:00 | 00:00:00 | |
| ARGUS2 | 2026-09-05 00:05:43 | 27.81881 | -82.45969 | 261° | 27km/h | 20059m | 5.0m/s | -65.1°C | 0% | 0hPa | 0V | 00:00:00 | 00:00:00 | 00:00:00 | |
| ARGUS2 | 2026-09-05 00:05:23 | 27.81879 | -82.45814 | 279° | 35km/h | 19952m | 6.2m/s | -66.0°C | 0% | 0hPa | 0V | 00:00:00 | 00:00:00 | 00:00:00 | |
| ARGUS2 | 2026-09-05 00:05:03 | 27.81919 | -82.45660 | 229° | 29km/h | 19841m | 4.8m/s | -66.5°C | 0% | 0hPa | 0V | 00:00:00 | 00:00:00 | 00:00:00 | |
| ARGUS2 | 2026-09-05 00:04:42 | 27.81969 | -82.45561 | 242° | 13km/h | 19738m | 4.7m/s | -66.1°C | 0% | 0hPa | 0V | 00:00:00 | 00:00:00 | 00:00:00 | |
| ARGUS2 | 2026-09-05 00:04:02 | 27.82128 | -82.45427 | 197° | 16km/h | 19526m | 5.8m/s | -65.7°C | 0% | 0hPa | 0V | 00:00:00 | 00:00:00 | 00:00:00 | |
| ARGUS2 | 2026-09-05 00:03:41 | 27.82270 | -82.45338 | 210° | 24km/h | 19422m | 4.0m/s | -65.0°C | 0% | 0hPa | 0V | 00:00:00 | 00:00:00 | 00:00:00 | |
| ARGUS2 | 2026-09-05 00:03:20 | 27.82400 | -82.45236 | 228° | 33km/h | 19323m | 6.0m/s | -64.4°C | 0% | 0hPa | 0V | 00:00:00 | 00:00:00 | 00:00:00 | |
| ARGUS2 | 2026-09-05 00:02:42 | 27.82562 | -82.44965 | 263° | 33km/h | 19141m | 4.2m/s | -63.8°C | 0% | 0hPa | 0V | 00:00:00 | 00:00:00 | 00:00:00 | |
| ARGUS2 | 2026-09-05 00:02:21 | 27.82621 | -82.44812 | 249° | 29km/h | 19054m | 4.4m/s | -63.8°C | 0% | 0hPa | 0V | 00:00:00 | 00:00:00 | 00:00:00 | |
| ARGUS2 | 2026-09-05 00:01:40 | 27.82847 | -82.44461 | 214° | 53km/h | 18843m | 6.2m/s | -64.9°C | 0% | 0hPa | 0V | 00:00:00 | 00:00:00 | 00:00:00 | |
| ARGUS2 | 2026-09-05 00:01:19 | 27.83048 | -82.44321 | 217° | 53km/h | 18743m | 4.8m/s | -64.3°C | 0% | 0hPa | 0V | 00:00:00 | 00:00:00 | 00:00:00 | |
| ARGUS2 | 2026-09-05 00:00:56 | 27.83216 | -82.44187 | 227° | 37km/h | 18642m | 5.9m/s | -63.8°C | 0% | 0hPa | 0V | 00:00:00 | 00:00:00 | 00:00:00 | |
| ARGUS2 | 2026-09-05 00:00:38 | 27.83360 | -82.44092 | 202° | 37km/h | 18539m | 5.6m/s | -63.8°C | 0% | 0hPa | 0V | 00:00:00 | 00:00:00 | 00:00:00 | |
| ARGUS2 | 2026-09-05 00:00:19 | 27.83443 | -82.44037 | 253° | 13km/h | 18436m | 5.2m/s | -64.3°C | 0% | 0hPa | 0V | 00:00:00 | 00:00:00 | 00:00:00 | |
| ARGUS2 | 2026-09-04 23:59:55 | 27.83453 | -82.44007 | 323° | 9km/h | 18331m | 6.1m/s | -64.6°C | 0% | 0hPa | 0V | 00:00:00 | 00:00:00 | 00:00:00 | |
| ARGUS2 | 2026-09-04 23:59:34 | 27.83412 | -82.43944 | 291° | 13km/h | 18232m | 5.5m/s | -64.1°C | 0% | 0hPa | 0V | 00:00:00 | 00:00:00 | 00:00:00 | |
| ARGUS2 | 2026-09-04 23:59:13 | 27.83393 | -82.43841 | 284° | 24km/h | 18121m | 4.6m/s | -63.7°C | 0% | 0hPa | 0V | 00:00:00 | 00:00:00 | 00:00:00 | |
| ARGUS2 | 2026-09-04 23:58:53 | 27.83421 | -82.43721 | 251° | 20km/h | 18018m | 4.7m/s | -64.1°C | 0% | 0hPa | 0V | 00:00:00 | 00:00:00 | 00:00:00 | |
| ARGUS2 | 2026-09-04 23:58:33 | 27.83454 | -82.43577 | 249° | 29km/h | 17908m | 5.4m/s | -64.4°C | 0% | 0hPa | 0V | 00:00:00 | 00:00:00 | 00:00:00 | |
| ARGUS2 | 2026-09-04 23:58:11 | 27.83540 | -82.43428 | 225° | 27km/h | 17802m | 5.3m/s | -64.8°C | 0% | 0hPa | 0V | 00:00:00 | 00:00:00 | 00:00:00 | |
| ARGUS2 | 2026-09-04 23:57:51 | 27.83688 | -82.43255 | 243° | 35km/h | 17688m | 8.1m/s | -64.6°C | 0% | 0hPa | 0V | 00:00:00 | 00:00:00 | 00:00:00 | |
| ARGUS2 | 2026-09-04 23:57:31 | 27.83784 | -82.43098 | 303° | 20km/h | 17541m | 7.9m/s | -66.5°C | 0% | 0hPa | 0V | 00:00:00 | 00:00:00 | 00:00:00 | |
| ARGUS2 | 2026-09-04 23:57:10 | 27.83709 | -82.42992 | 304° | 37km/h | 17432m | 5.6m/s | -67.0°C | 0% | 0hPa | 0V | 00:00:00 | 00:00:00 | 00:00:00 | |
| ARGUS2 | 2026-09-04 23:56:50 | 27.83592 | -82.42843 | 292° | 42km/h | 17335m | 3.9m/s | -68.4°C | 0% | 0hPa | 0V | 00:00:00 | 00:00:00 | 00:00:00 | |
| ARGUS2 | 2026-09-04 23:56:29 | 27.83509 | -82.42653 | 275° | 31km/h | 17240m | 4.7m/s | -68.9°C | 0% | 0hPa | 0V | 00:00:00 | 00:00:00 | 00:00:00 | |
| ARGUS2 | 2026-09-04 23:56:08 | 27.83470 | -82.42452 | 274° | 35km/h | 17139m | 4.9m/s | -69.6°C | 0% | 0hPa | 0V | 00:00:00 | 00:00:00 | 00:00:00 | |
| ARGUS2 | 2026-09-04 23:55:48 | 27.83453 | -82.42305 | 294° | 27km/h | 17036m | 5.8m/s | -69.5°C | 0% | 0hPa | 0V | 00:00:00 | 00:00:00 | 00:00:00 | |
| ARGUS2 | 2026-09-04 23:55:28 | 27.83423 | -82.42206 | 299° | 24km/h | 16932m | 5.3m/s | -70.0°C | 0% | 0hPa | 0V | 00:00:00 | 00:00:00 | 00:00:00 | |
| ARGUS2 | 2026-09-04 23:55:07 | 27.83364 | -82.42127 | 296° | 16km/h | 16830m | 5.2m/s | -71.1°C | 0% | 0hPa | 0V | 00:00:00 | 00:00:00 | 00:00:00 | |
| ARGUS2 | 2026-09-04 23:54:47 | 27.83303 | -82.42022 | 290° | 20km/h | 16716m | 7.2m/s | -71.3°C | 0% | 0hPa | 0V | 00:00:00 | 00:00:00 | 00:00:00 | |
| ARGUS2 | 2026-09-04 23:54:26 | 27.83238 | -82.41907 | 298° | 24km/h | 16612m | 5.8m/s | -71.3°C | 0% | 0hPa | 0V | 00:00:00 | 00:00:00 | 00:00:00 | |
| ARGUS2 | 2026-09-04 23:54:06 | 27.83155 | -82.41800 | 300° | 35km/h | 16505m | 4.6m/s | -71.4°C | 0% | 0hPa | 0V | 00:00:00 | 00:00:00 | 00:00:00 | |
| ARGUS2 | 2026-09-04 23:53:45 | 27.83098 | -82.41672 | 286° | 38km/h | 16406m | 4.7m/s | -71.4°C | 0% | 0hPa | 0V | 00:00:00 | 00:00:00 | 00:00:00 | |
| ARGUS2 | 2026-09-04 23:53:25 | 27.83045 | -82.41499 | 276° | 33km/h | 16305m | 5.3m/s | -72.0°C | 0% | 0hPa | 0V | 00:00:00 | 00:00:00 | 00:00:00 | |
| ARGUS2 | 2026-09-04 23:53:03 | 27.83012 | -82.41287 | 287° | 38km/h | 16210m | 3.9m/s | -71.8°C | 0% | 0hPa | 0V | 00:00:00 | 00:00:00 | 00:00:00 | |
| ARGUS2 | 2026-09-04 23:52:43 | 27.82965 | -82.41057 | 273° | 33km/h | 16126m | 2.9m/s | -71.3°C | 0% | 0hPa | 0V | 00:00:00 | 00:00:00 | 00:00:00 | |
| ARGUS2 | 2026-09-04 23:52:22 | 27.82893 | -82.40829 | 291° | 37km/h | 16039m | 3.8m/s | -71.1°C | 0% | 0hPa | 0V | 00:00:00 | 00:00:00 | 00:00:00 | |
| ARGUS2 | 2026-09-04 23:52:02 | 27.82862 | -82.40625 | 275° | 37km/h | 15954m | 3.5m/s | -71.0°C | 0% | 0hPa | 0V | 00:00:00 | 00:00:00 | 00:00:00 | |
| ARGUS2 | 2026-09-04 23:51:41 | 27.82873 | -82.40418 | 256° | 33km/h | 15866m | 5.1m/s | -70.5°C | 0% | 0hPa | 0V | 00:00:00 | 00:00:00 | 00:00:00 | |
| ARGUS2 | 2026-09-04 23:51:22 | 27.82874 | -82.40223 | 270° | 33km/h | 15783m | 3.9m/s | -71.6°C | 0% | 0hPa | 0V | 00:00:00 | 00:00:00 | 00:00:00 | |
| ARGUS2 | 2026-09-04 23:51:01 | 27.82877 | -82.39992 | 263° | 38km/h | 15687m | 4.6m/s | -71.4°C | 0% | 0hPa | 0V | 00:00:00 | 00:00:00 | 00:00:00 | |
| ARGUS2 | 2026-09-04 23:50:40 | 27.82918 | -82.39790 | 266° | 31km/h | 15593m | 4.9m/s | -70.7°C | 0% | 0hPa | 0V | 00:00:00 | 00:00:00 | 00:00:00 | |
| ARGUS2 | 2026-09-04 23:50:20 | 27.82953 | -82.39564 | 231° | 37km/h | 15498m | 3.6m/s | -70.2°C | 0% | 0hPa | 0V | 00:00:00 | 00:00:00 | 00:00:00 | |
| ARGUS2 | 2026-09-04 23:49:59 | 27.82944 | -82.39418 | 268° | 37km/h | 15383m | 5.1m/s | -69.6°C | 0% | 0hPa | 0V | 00:00:00 | 00:00:00 | 00:00:00 | |
| ARGUS2 | 2026-09-04 23:49:39 | 27.82871 | -82.39250 | 305° | 24km/h | 15286m | 5.6m/s | -69.2°C | 0% | 0hPa | 0V | 00:00:00 | 00:00:00 | 00:00:00 | |
| ARGUS2 | 2026-09-04 23:49:18 | 27.82780 | -82.39123 | 315° | 38km/h | 15160m | 7.8m/s | -68.3°C | 0% | 0hPa | 0V | 00:00:00 | 00:00:00 | 00:00:00 | |
| ARGUS2 | 2026-09-04 23:48:58 | 27.82635 | -82.38992 | 327° | 42km/h | 15014m | 6.4m/s | -68.1°C | 0% | 0hPa | 0V | 00:00:00 | 00:00:00 | 00:00:00 | |
| ARGUS2 | 2026-09-04 23:48:37 | 27.82450 | -82.38893 | 333° | 38km/h | 14909m | 5.2m/s | -67.7°C | 0% | 0hPa | 0V | 00:00:00 | 00:00:00 | 00:00:00 | |
| ARGUS2 | 2026-09-04 23:48:17 | 27.82259 | -82.38797 | 343° | 37km/h | 14794m | 6.8m/s | -67.0°C | 0% | 0hPa | 0V | 00:00:00 | 00:00:00 | 00:00:00 | |
| ARGUS2 | 2026-09-04 23:47:55 | 27.82082 | -82.38686 | 330° | 49km/h | 14674m | 5.0m/s | -66.6°C | 0% | 0hPa | 0V | 00:00:00 | 00:00:00 | 00:00:00 | |
| ARGUS2 | 2026-09-04 23:47:35 | 27.81919 | -82.38557 | 306° | 46km/h | 14566m | 5.1m/s | -66.6°C | 0% | 0hPa | 0V | 00:00:00 | 00:00:00 | 00:00:00 | |
| ARGUS2 | 2026-09-04 23:47:14 | 27.81788 | -82.38364 | 284° | 29km/h | 14429m | 5.8m/s | -65.7°C | 0% | 0hPa | 0V | 00:00:00 | 00:00:00 | 00:00:00 | |
| ARGUS2 | 2026-09-04 23:46:54 | 27.81687 | -82.38161 | 315° | 27km/h | 14306m | 4.1m/s | -64.8°C | 0% | 0hPa | 0V | 00:00:00 | 00:00:00 | 00:00:00 | |
| ARGUS2 | 2026-09-04 23:46:34 | 27.81569 | -82.37977 | 269° | 35km/h | 14188m | 7.3m/s | -64.0°C | 0% | 0hPa | 0V | 00:00:00 | 00:00:00 | 00:00:00 | |
| ARGUS2 | 2026-09-04 23:46:13 | 27.81469 | -82.37835 | 305° | 33km/h | 14076m | 6.2m/s | -63.2°C | 0% | 0hPa | 0V | 00:00:00 | 00:00:00 | 00:00:00 | |
| ARGUS2 | 2026-09-04 23:45:53 | 27.81343 | -82.37686 | 347° | 18km/h | 13967m | 3.3m/s | -62.3°C | 0% | 0hPa | 0V | 00:00:00 | 00:00:00 | 00:00:00 | |
| ARGUS2 | 2026-09-04 23:45:32 | 27.81240 | -82.37558 | 303° | 20km/h | 13866m | 4.2m/s | -61.6°C | 0% | 0hPa | 0V | 00:00:00 | 00:00:00 | 00:00:00 | |
| ARGUS2 | 2026-09-04 23:45:12 | 27.81108 | -82.37405 | 330° | 31km/h | 13763m | 5.6m/s | -60.7°C | 0% | 0hPa | 0V | 00:00:00 | 00:00:00 | 00:00:00 | |
| ARGUS2 | 2026-09-04 23:44:51 | 27.81002 | -82.37261 | 320° | 38km/h | 13670m | 5.5m/s | -59.9°C | 0% | 0hPa | 0V | 00:00:00 | 00:00:00 | 00:00:00 | |
| ARGUS2 | 2026-09-04 23:44:31 | 27.80897 | -82.37124 | 316° | 29km/h | 13582m | 5.6m/s | -59.1°C | 0% | 0hPa | 0V | 00:00:00 | 00:00:00 | 00:00:00 | |
| ARGUS2 | 2026-09-04 23:44:10 | 27.80799 | -82.36983 | 303° | 20km/h | 13489m | 5.2m/s | -58.4°C | 0% | 0hPa | 0V | 00:00:00 | 00:00:00 | 00:00:00 | |
| ARGUS2 | 2026-09-04 23:43:50 | 27.80689 | -82.36822 | 278° | 18km/h | 13389m | 8.1m/s | -57.6°C | 0% | 0hPa | 0V | 00:00:00 | 00:00:00 | 00:00:00 | |
| ARGUS2 | 2026-09-04 23:43:30 | 27.80602 | -82.36668 | 274° | 38km/h | 13284m | 4.0m/s | -56.8°C | 0% | 0hPa | 0V | 00:00:00 | 00:00:00 | 00:00:00 | |
| ARGUS2 | 2026-09-04 23:43:09 | 27.80516 | -82.36471 | 312° | 46km/h | 13177m | 5.1m/s | -55.9°C | 0% | 0hPa | 0V | 00:00:00 | 00:00:00 | 00:00:00 | |
| ARGUS2 | 2026-09-04 23:42:47 | 27.80419 | -82.36270 | 293° | 35km/h | 13069m | 6.5m/s | -55.5°C | 0% | 0hPa | 0V | 00:00:00 | 00:00:00 | 00:00:00 | |
| ARGUS2 | 2026-09-04 23:42:27 | 27.80323 | -82.36088 | 324° | 40km/h | 12957m | 7.1m/s | -54.6°C | 0% | 0hPa | 0V | 00:00:00 | 00:00:00 | 00:00:00 | |
| ARGUS2 | 2026-09-04 23:42:07 | 27.80217 | -82.35907 | 261° | 33km/h | 12830m | 3.3m/s | -53.4°C | 0% | 0hPa | 0V | 00:00:00 | 00:00:00 | 00:00:00 | |
| ARGUS2 | 2026-09-04 23:41:46 | 27.80116 | -82.35734 | 272° | 31km/h | 12693m | 9.1m/s | -52.2°C | 0% | 0hPa | 0V | 00:00:00 | 00:00:00 | 00:00:00 | |
| ARGUS2 | 2026-09-04 23:41:25 | 27.80069 | -82.35583 | 315° | 11km/h | 12544m | 5.0m/s | -51.1°C | 0% | 0hPa | 0V | 00:00:00 | 00:00:00 | 00:00:00 | |
| ARGUS2 | 2026-09-04 23:41:05 | 27.79967 | -82.35418 | 312° | 58km/h | 12407m | 6.5m/s | -50.0°C | 0% | 0hPa | 0V | 00:00:00 | 00:00:00 | 00:00:00 | |
| ARGUS2 | 2026-09-04 23:40:45 | 27.79857 | -82.35241 | 248° | 24km/h | 12256m | 7.8m/s | -48.9°C | 0% | 0hPa | 0V | 00:00:00 | 00:00:00 | 00:00:00 | |
| ARGUS2 | 2026-09-04 23:40:24 | 27.79773 | -82.35096 | 299° | 51km/h | 12113m | 6.1m/s | -47.7°C | 0% | 0hPa | 0V | 00:00:00 | 00:00:00 | 00:00:00 | |
| ARGUS2 | 2026-09-04 23:40:03 | 27.79725 | -82.34930 | 233° | 15km/h | 11975m | 4.1m/s | -46.5°C | 0% | 0hPa | 0V | 00:00:00 | 00:00:00 | 00:00:00 | |
| ARGUS2 | 2026-09-04 23:39:43 | 27.79656 | -82.34772 | 339° | 35km/h | 11829m | 7.1m/s | -45.5°C | 0% | 0hPa | 0V | 00:00:00 | 00:00:00 | 00:00:00 | |
| ARGUS2 | 2026-09-04 23:39:23 | 27.79569 | -82.34631 | 307° | 38km/h | 11679m | 6.1m/s | -44.4°C | 0% | 0hPa | 0V | 00:00:00 | 00:00:00 | 00:00:00 | |
| ARGUS2 | 2026-09-04 23:39:02 | 27.79477 | -82.34516 | 329° | 35km/h | 11564m | 6.2m/s | -43.6°C | 0% | 0hPa | 0V | 00:00:00 | 00:00:00 | 00:00:00 | |
| ARGUS2 | 2026-09-04 23:38:21 | 27.79253 | -82.34311 | 304° | 11km/h | 11294m | 9.5m/s | -41.4°C | 0% | 0hPa | 0V | 00:00:00 | 00:00:00 | 00:00:00 | |
| ARGUS2 | 2026-09-04 23:38:01 | 27.79135 | -82.34234 | 327° | 49km/h | 11132m | 6.7m/s | -40.4°C | 0% | 0hPa | 0V | 00:00:00 | 00:00:00 | 00:00:00 | |
| ARGUS2 | 2026-09-04 23:37:39 | 27.79003 | -82.34216 | 33° | 31km/h | 10977m | 7.5m/s | -39.3°C | 0% | 0hPa | 0V | 00:00:00 | 00:00:00 | 00:00:00 | |
| ARGUS2 | 2026-09-04 23:37:19 | 27.78854 | -82.34283 | 56° | 31km/h | 10859m | 6.1m/s | -38.2°C | 0% | 0hPa | 0V | 00:00:00 | 00:00:00 | 00:00:00 | |
| ARGUS2 | 2026-09-04 23:36:58 | 27.78713 | -82.34361 | 24° | 18km/h | 10751m | 5.9m/s | -37.3°C | 0% | 0hPa | 0V | 00:00:00 | 00:00:00 | 00:00:00 | |
| ARGUS2 | 2026-09-04 23:36:38 | 27.78567 | -82.34434 | 46° | 37km/h | 10650m | 4.9m/s | -36.3°C | 0% | 0hPa | 0V | 00:00:00 | 00:00:00 | 00:00:00 | |
| ARGUS2 | 2026-09-04 23:36:18 | 27.78411 | -82.34541 | 49° | 40km/h | 10539m | 4.7m/s | -35.3°C | 0% | 0hPa | 0V | 00:00:00 | 00:00:00 | 00:00:00 | |
| ARGUS2 | 2026-09-04 23:35:58 | 27.78258 | -82.34640 | 40° | 20km/h | 10441m | 4.6m/s | -34.4°C | 0% | 0hPa | 0V | 00:00:00 | 00:00:00 | 00:00:00 | |
| ARGUS2 | 2026-09-04 23:35:37 | 27.78129 | -82.34740 | 38° | 33km/h | 10347m | 5.0m/s | -33.8°C | 0% | 0hPa | 0V | 00:00:00 | 00:00:00 | 00:00:00 | |
| ARGUS2 | 2026-09-04 23:35:16 | 27.78012 | -82.34841 | 54° | 24km/h | 10274m | 4.0m/s | -33.1°C | 0% | 0hPa | 0V | 00:00:00 | 00:00:00 | 00:00:00 | |
| ARGUS2 | 2026-09-04 23:34:56 | 27.77901 | -82.34930 | 55° | 18km/h | 10192m | 3.8m/s | -32.5°C | 0% | 0hPa | 0V | 00:00:00 | 00:00:00 | 00:00:00 | |
| ARGUS2 | 2026-09-04 23:34:35 | 27.77796 | -82.35007 | 19° | 24km/h | 10114m | 4.3m/s | -32.2°C | 0% | 0hPa | 0V | 00:00:00 | 00:00:00 | 00:00:00 | |
| ARGUS2 | 2026-09-04 23:34:15 | 27.77675 | -82.35049 | 18° | 20km/h | 10038m | 3.0m/s | -31.9°C | 0% | 0hPa | 0V | 00:00:00 | 00:00:00 | 00:00:00 | |
| ARGUS2 | 2026-09-04 23:33:54 | 27.77572 | -82.35106 | 22° | 22km/h | 9961m | 3.9m/s | -31.5°C | 0% | 0hPa | 0V | 00:00:00 | 00:00:00 | 00:00:00 | |
| ARGUS2 | 2026-09-04 23:33:34 | 27.77492 | -82.35168 | 60° | 13km/h | 9886m | 4.0m/s | -30.9°C | 0% | 0hPa | 0V | 00:00:00 | 00:00:00 | 00:00:00 | |
| ARGUS2 | 2026-09-04 23:33:13 | 27.77429 | -82.35218 | 32° | 13km/h | 9810m | 3.5m/s | -30.3°C | 0% | 0hPa | 0V | 00:00:00 | 00:00:00 | 00:00:00 | |
| ARGUS2 | 2026-09-04 23:32:53 | 27.77356 | -82.35251 | 353° | 18km/h | 9725m | 3.8m/s | -29.7°C | 0% | 0hPa | 0V | 00:00:00 | 00:00:00 | 00:00:00 | |
| ARGUS2 | 2026-09-04 23:32:32 | 27.77268 | -82.35269 | 32° | 16km/h | 9641m | 5.6m/s | -29.3°C | 0% | 0hPa | 0V | 00:00:00 | 00:00:00 | 00:00:00 | |
| ARGUS2 | 2026-09-04 23:32:11 | 27.77172 | -82.35303 | 18° | 29km/h | 9563m | 3.3m/s | -28.7°C | 0% | 0hPa | 0V | 00:00:00 | 00:00:00 | 00:00:00 | |
| ARGUS2 | 2026-09-04 23:31:50 | 27.77075 | -82.35336 | 25° | 18km/h | 9477m | 4.3m/s | -27.9°C | 0% | 0hPa | 0V | 00:00:00 | 00:00:00 | 00:00:00 | |
| ARGUS2 | 2026-09-04 23:31:30 | 27.76972 | -82.35401 | 16° | 26km/h | 9394m | 3.5m/s | -27.1°C | 0% | 0hPa | 0V | 00:00:00 | 00:00:00 | 00:00:00 | |
| ARGUS2 | 2026-09-04 23:31:09 | 27.76873 | -82.35461 | 42° | 20km/h | 9308m | 5.1m/s | -26.5°C | 0% | 0hPa | 0V | 00:00:00 | 00:00:00 | 00:00:00 | |
| ARGUS2 | 2026-09-04 23:30:49 | 27.76798 | -82.35516 | 347° | 18km/h | 9226m | 5.0m/s | -26.1°C | 0% | 0hPa | 0V | 00:00:00 | 00:00:00 | 00:00:00 | |
| ARGUS2 | 2026-09-04 23:30:29 | 27.76697 | -82.35560 | 18° | 15km/h | 9124m | 3.6m/s | -25.4°C | 0% | 0hPa | 0V | 00:00:00 | 00:00:00 | 00:00:00 | |
| ARGUS2 | 2026-09-04 23:30:07 | 27.76606 | -82.35596 | 335° | 15km/h | 9032m | 3.8m/s | -24.8°C | 0% | 0hPa | 0V | 00:00:00 | 00:00:00 | 00:00:00 | |
| ARGUS2 | 2026-09-04 23:29:03 | 27.76326 | -82.35660 | 27° | 20km/h | 8735m | 5.1m/s | -22.6°C | 0% | 0hPa | 0V | 00:00:00 | 00:00:00 | 00:00:00 | |
| ARGUS2 | 2026-09-04 23:28:35 | 27.76225 | -82.35680 | 5° | 20km/h | 8615m | 4.7m/s | -21.7°C | 0% | 0hPa | 0V | 00:00:00 | 00:00:00 | 00:00:00 | |
| ARGUS2 | 2026-09-04 23:27:52 | 27.76034 | -82.35660 | 352° | 27km/h | 8385m | 4.1m/s | -20.3°C | 0% | 0hPa | 0V | 00:00:00 | 00:00:00 | 00:00:00 | |
| ARGUS2 | 2026-09-04 23:27:30 | 27.75931 | -82.35614 | 341° | 22km/h | 8279m | 4.2m/s | -19.5°C | 0% | 0hPa | 0V | 00:00:00 | 00:00:00 | 00:00:00 | |
| ARGUS2 | 2026-09-04 23:27:10 | 27.75861 | -82.35594 | 335° | 26km/h | 8190m | 3.6m/s | -19.0°C | 0% | 0hPa | 0V | 00:00:00 | 00:00:00 | 00:00:00 | |
| ARGUS2 | 2026-09-04 23:26:50 | 27.75779 | -82.35585 | 343° | 31km/h | 8076m | 6.4m/s | -18.6°C | 0% | 0hPa | 0V | 00:00:00 | 00:00:00 | 00:00:00 | |
| ARGUS2 | 2026-09-04 23:26:30 | 27.75690 | -82.35564 | 7° | 26km/h | 7966m | 5.3m/s | -17.8°C | 0% | 0hPa | 0V | 00:00:00 | 00:00:00 | 00:00:00 | |
| ARGUS2 | 2026-09-04 23:26:09 | 27.75601 | -82.35567 | 14° | 22km/h | 7867m | 4.4m/s | -17.0°C | 0% | 0hPa | 0V | 00:00:00 | 00:00:00 | 00:00:00 | |
| ARGUS2 | 2026-09-04 23:25:48 | 27.75485 | -82.35596 | 358° | 13km/h | 7772m | 3.8m/s | -16.2°C | 0% | 0hPa | 0V | 00:00:00 | 00:00:00 | 00:00:00 | |
| ARGUS2 | 2026-09-04 23:25:26 | 27.75366 | -82.35624 | 25° | 16km/h | 7669m | 4.5m/s | -15.4°C | 0% | 0hPa | 0V | 00:00:00 | 00:00:00 | 00:00:00 | |
| ARGUS2 | 2026-09-04 23:25:05 | 27.75251 | -82.35648 | 331° | 26km/h | 7565m | 4.0m/s | -14.6°C | 0% | 0hPa | 0V | 00:00:00 | 00:00:00 | 00:00:00 | |
| ARGUS2 | 2026-09-04 23:24:45 | 27.75134 | -82.35678 | 29° | 22km/h | 7476m | 4.9m/s | -14.2°C | 0% | 0hPa | 0V | 00:00:00 | 00:00:00 | 00:00:00 | |
| ARGUS2 | 2026-09-04 23:24:25 | 27.75022 | -82.35734 | 336° | 9km/h | 7395m | 6.6m/s | -13.9°C | 0% | 0hPa | 0V | 00:00:00 | 00:00:00 | 00:00:00 | |
| ARGUS2 | 2026-09-04 23:24:04 | 27.74967 | -82.35802 | 36° | 16km/h | 7294m | 4.3m/s | -13.4°C | 0% | 0hPa | 0V | 00:00:00 | 00:00:00 | 00:00:00 | |
| ARGUS2 | 2026-09-04 23:23:43 | 27.74890 | -82.35847 | 30° | 18km/h | 7206m | 4.7m/s | -13.3°C | 0% | 0hPa | 0V | 00:00:00 | 00:00:00 | 00:00:00 | |
| ARGUS2 | 2026-09-04 23:23:23 | 27.74783 | -82.35916 | 35° | 29km/h | 7125m | 5.1m/s | -13.1°C | 0% | 0hPa | 0V | 00:00:00 | 00:00:00 | 00:00:00 | |
| ARGUS2 | 2026-09-04 23:23:03 | 27.74693 | -82.36025 | 64° | 7km/h | 7036m | 3.4m/s | -12.4°C | 0% | 0hPa | 0V | 00:00:00 | 00:00:00 | 00:00:00 | |
| ARGUS2 | 2026-09-04 23:22:41 | 27.74579 | -82.36086 | 327° | 13km/h | 6933m | 5.2m/s | -11.6°C | 0% | 0hPa | 0V | 00:00:00 | 00:00:00 | 00:00:00 | |
| ARGUS2 | 2026-09-04 23:22:20 | 27.74536 | -82.36139 | 80° | 18km/h | 6818m | 3.6m/s | -10.8°C | 0% | 0hPa | 0V | 00:00:00 | 00:00:00 | 00:00:00 | |
| ARGUS2 | 2026-09-04 23:21:58 | 27.74467 | -82.36197 | 64° | 11km/h | 6712m | 7.5m/s | -10.0°C | 0% | 0hPa | 0V | 00:00:00 | 00:00:00 | 00:00:00 | |
| ARGUS2 | 2026-09-04 23:21:36 | 27.74407 | -82.36235 | 43° | 27km/h | 6597m | 7.0m/s | -9.3°C | 0% | 0hPa | 0V | 00:00:00 | 00:00:00 | 00:00:00 | |
| ARGUS2 | 2026-09-04 23:21:16 | 27.74359 | -82.36289 | 350° | 15km/h | 6491m | 4.3m/s | -8.8°C | 0% | 0hPa | 0V | 00:00:00 | 00:00:00 | 00:00:00 | |
| ARGUS2 | 2026-09-04 23:20:56 | 27.74286 | -82.36348 | 16° | 31km/h | 6381m | 8.4m/s | -8.0°C | 0% | 0hPa | 0V | 00:00:00 | 00:00:00 | 00:00:00 | |
| ARGUS2 | 2026-09-04 23:20:35 | 27.74204 | -82.36439 | 37° | 13km/h | 6271m | 7.4m/s | -7.3°C | 0% | 0hPa | 0V | 00:00:00 | 00:00:00 | 00:00:00 | |
| ARGUS2 | 2026-09-04 23:20:15 | 27.74172 | -82.36501 | 76° | 26km/h | 6151m | 3.7m/s | -6.4°C | 0% | 0hPa | 0V | 00:00:00 | 00:00:00 | 00:00:00 | |
| ARGUS2 | 2026-09-04 23:19:54 | 27.74132 | -82.36590 | 35° | 26km/h | 6046m | 6.0m/s | -6.1°C | 0% | 0hPa | 0V | 00:00:00 | 00:00:00 | 00:00:00 | |
| ARGUS2 | 2026-09-04 23:19:34 | 27.74106 | -82.36668 | 49° | 16km/h | 5918m | 5.4m/s | -5.1°C | 0% | 0hPa | 0V | 00:00:00 | 00:00:00 | 00:00:00 | |
| ARGUS2 | 2026-09-04 23:19:13 | 27.74041 | -82.36732 | 8° | 15km/h | 5802m | 6.0m/s | -4.2°C | 0% | 0hPa | 0V | 00:00:00 | 00:00:00 | 00:00:00 | |
| ARGUS2 | 2026-09-04 23:18:53 | 27.73977 | -82.36793 | 56° | 9km/h | 5699m | 4.8m/s | -3.3°C | 0% | 0hPa | 0V | 00:00:00 | 00:00:00 | 00:00:00 | |
| ARGUS2 | 2026-09-04 23:18:32 | 27.73907 | -82.36858 | 88° | 26km/h | 5616m | 6.5m/s | -3.1°C | 0% | 0hPa | 0V | 00:00:00 | 00:00:00 | 00:00:00 | |
| ARGUS2 | 2026-09-04 23:18:12 | 27.73812 | -82.36955 | 22° | 33km/h | 5520m | 3.7m/s | -2.8°C | 0% | 0hPa | 0V | 00:00:00 | 00:00:00 | 00:00:00 | |
| ARGUS2 | 2026-09-04 23:17:50 | 27.73734 | -82.37024 | 39° | 18km/h | 5428m | 4.6m/s | -2.3°C | 0% | 0hPa | 0V | 00:00:00 | 00:00:00 | 00:00:00 | |
| ARGUS2 | 2026-09-04 23:17:29 | 27.73641 | -82.37107 | 42° | 11km/h | 5328m | 4.1m/s | -2.0°C | 0% | 0hPa | 0V | 00:00:00 | 00:00:00 | 00:00:00 | |
| ARGUS2 | 2026-09-04 23:17:09 | 27.73595 | -82.37203 | 26° | 29km/h | 5231m | 4.0m/s | -1.5°C | 0% | 0hPa | 0V | 00:00:00 | 00:00:00 | 00:00:00 | |
| ARGUS2 | 2026-09-04 23:16:48 | 27.73553 | -82.37286 | 94° | 16km/h | 5137m | 4.1m/s | 0°C | 0% | 0hPa | 0V | 00:00:00 | 00:00:00 | 00:00:00 | |
| ARGUS2 | 2026-09-04 23:16:27 | 27.73504 | -82.37326 | 4° | 18km/h | 5039m | 5.8m/s | -0.4°C | 0% | 0hPa | 0V | 00:00:00 | 00:00:00 | 00:00:00 | |
| ARGUS2 | 2026-09-04 23:16:06 | 27.73416 | -82.37395 | 88° | 13km/h | 4927m | 4.3m/s | -0.4°C | 0% | 0hPa | 0V | 00:00:00 | 00:00:00 | 00:00:00 | |
| ARGUS2 | 2026-09-04 23:15:45 | 27.73355 | -82.37482 | 360° | 20km/h | 4816m | 4.8m/s | 0.1°C | 0% | 0hPa | 0V | 00:00:00 | 00:00:00 | 00:00:00 | |
| ARGUS2 | 2026-09-04 23:14:03 | 27.73044 | -82.37780 | 24° | 22km/h | 4281m | 5.8m/s | 3.6°C | 0% | 0hPa | 0V | 00:00:00 | 00:00:00 | 00:00:00 | |
| ARGUS2 | 2026-09-04 23:13:42 | 27.72968 | -82.37872 | 83° | 22km/h | 4177m | 3.8m/s | 4.2°C | 0% | 0hPa | 0V | 00:00:00 | 00:00:00 | 00:00:00 | |
| ARGUS2 | 2026-09-04 23:13:21 | 27.72907 | -82.37944 | 359° | 16km/h | 4061m | 4.4m/s | 4.8°C | 0% | 0hPa | 0V | 00:00:00 | 00:00:00 | 00:00:00 | |
| ARGUS2 | 2026-09-04 23:13:00 | 27.72862 | -82.38027 | 10° | 27km/h | 3942m | 5.6m/s | 5.3°C | 0% | 0hPa | 0V | 00:00:00 | 00:00:00 | 00:00:00 | |
| ARGUS2 | 2026-09-04 23:12:39 | 27.72830 | -82.38097 | 52° | 9km/h | 3823m | 5.1m/s | 5.9°C | 0% | 0hPa | 0V | 00:00:00 | 00:00:00 | 00:00:00 | |
| ARGUS2 | 2026-09-04 23:12:18 | 27.72769 | -82.38196 | 86° | 26km/h | 3693m | 6.8m/s | 6.8°C | 0% | 0hPa | 0V | 00:00:00 | 00:00:00 | 00:00:00 |